createdAt,value
2018-12-26T00:00:49.627Z,86.40
2018-12-26T00:03:17.506Z,86.49
2018-12-26T00:05:45.304Z,86.54
2018-12-26T00:08:13.685Z,86.47
2018-12-26T00:10:41.402Z,86.76
2018-12-26T00:13:09.105Z,86.72
2018-12-26T00:15:37.078Z,87.00
2018-12-26T00:18:04.522Z,86.45
2018-12-26T00:20:31.963Z,86.61
2018-12-26T00:22:59.761Z,86.84
2018-12-26T00:25:27.322Z,87.16
2018-12-26T00:27:54.440Z,87.08
2018-12-26T00:30:21.922Z,86.89
2018-12-26T00:32:49.587Z,86.74
2018-12-26T00:35:16.879Z,86.84
2018-12-26T00:37:44.722Z,87.28
2018-12-26T00:40:12.385Z,87.24
2018-12-26T00:42:40.121Z,87.03
2018-12-26T00:45:07.364Z,87.04
2018-12-26T00:47:34.604Z,86.78
2018-12-26T00:50:02.296Z,86.48
2018-12-26T00:52:30.313Z,86.16
2018-12-26T00:54:58.442Z,85.96
2018-12-26T00:57:26.981Z,85.75
2018-12-26T00:59:54.086Z,86.37
2018-12-26T01:02:21.964Z,86.38
2018-12-26T01:04:49.564Z,86.71
2018-12-26T01:07:17.165Z,87.16
2018-12-26T01:09:45.116Z,87.41
2018-12-26T01:12:12.577Z,87.80
2018-12-26T01:14:40.146Z,87.41
2018-12-26T01:17:08.270Z,87.33
2018-12-26T01:19:36.606Z,87.46
2018-12-26T01:22:03.869Z,87.36
2018-12-26T01:24:31.878Z,87.88
2018-12-26T01:26:59.022Z,87.59
2018-12-26T01:29:26.465Z,87.48
2018-12-26T01:31:53.596Z,87.62
2018-12-26T01:34:21.137Z,87.77
2018-12-26T01:36:48.413Z,87.82
2018-12-26T01:39:15.983Z,87.53
2018-12-26T01:41:43.161Z,87.52
2018-12-26T01:44:10.819Z,87.60
2018-12-26T01:46:38.801Z,87.70
2018-12-26T01:49:05.943Z,88.12
2018-12-26T01:51:33.741Z,88.08
2018-12-26T01:54:01.235Z,88.10
2018-12-26T01:56:28.477Z,88.12
2018-12-26T01:58:59.017Z,88.33
2018-12-26T02:01:26.897Z,88.08
2018-12-26T02:03:54.172Z,88.09
2018-12-26T02:06:21.849Z,88.26
2018-12-26T02:08:49.592Z,88.12
2018-12-26T02:11:17.480Z,88.37
2018-12-26T02:13:44.800Z,88.37
2018-12-26T02:16:11.932Z,88.40
2018-12-26T02:18:39.293Z,88.40
2018-12-26T02:21:06.806Z,88.64
2018-12-26T02:23:33.945Z,88.15
2018-12-26T02:26:01.443Z,87.99
2018-12-26T02:28:29.218Z,88.24
2018-12-26T02:30:56.650Z,88.13
2018-12-26T02:33:24.389Z,88.22
2018-12-26T02:35:51.967Z,88.35
2018-12-26T02:38:19.568Z,88.40
2018-12-26T02:40:47.395Z,88.08
2018-12-26T02:43:14.615Z,88.06
2018-12-26T02:45:42.095Z,88.26
2018-12-26T02:48:09.313Z,88.14
2018-12-26T02:50:36.645Z,88.10
2018-12-26T02:53:04.323Z,88.14
2018-12-26T02:55:32.376Z,88.22
2018-12-26T02:57:59.648Z,88.18
2018-12-26T03:00:27.000Z,88.14
2018-12-26T03:02:54.865Z,88.26
2018-12-26T03:05:22.275Z,88.48
2018-12-26T03:07:51.017Z,88.05
2018-12-26T03:10:18.557Z,88.19
2018-12-26T03:12:45.926Z,88.23
2018-12-26T03:15:13.614Z,88.45
2018-12-26T03:17:41.380Z,88.64
2018-12-26T03:20:08.844Z,88.04
2018-12-26T03:22:36.769Z,88.41
2018-12-26T03:25:04.315Z,88.04
2018-12-26T03:27:32.330Z,88.06
2018-12-26T03:30:00.263Z,87.96
2018-12-26T03:32:27.866Z,88.26
2018-12-26T03:34:55.812Z,88.53
2018-12-26T03:37:23.263Z,88.49
2018-12-26T03:39:51.191Z,88.44
2018-12-26T03:42:18.498Z,88.19
2018-12-26T03:44:47.819Z,88.19
2018-12-26T03:47:16.434Z,88.07
2018-12-26T03:49:44.550Z,88.26
2018-12-26T03:52:12.469Z,88.01
2018-12-26T03:54:40.713Z,87.77
2018-12-26T03:57:08.352Z,87.76
2018-12-26T03:59:36.443Z,87.57
2018-12-26T04:02:04.383Z,87.74
2018-12-26T04:04:32.016Z,88.18
2018-12-26T04:06:59.727Z,87.82
2018-12-26T04:09:27.294Z,87.75
2018-12-26T04:11:55.230Z,87.93
2018-12-26T04:14:22.755Z,87.56
2018-12-26T04:16:50.305Z,87.94
2018-12-26T04:19:18.681Z,88.11
2018-12-26T04:21:46.718Z,88.10
2018-12-26T04:24:15.073Z,88.08
2018-12-26T04:26:42.673Z,87.99
2018-12-26T04:29:10.606Z,87.87
2018-12-26T04:31:38.545Z,88.18
2018-12-26T04:34:06.406Z,88.06
2018-12-26T04:36:33.959Z,88.25
2018-12-26T04:39:01.802Z,88.12
2018-12-26T04:41:29.457Z,88.53
2018-12-26T04:43:56.745Z,88.25
2018-12-26T04:46:24.246Z,88.28
2018-12-26T04:48:52.150Z,88.33
2018-12-26T04:51:19.306Z,88.61
2018-12-26T04:53:47.211Z,88.18
2018-12-26T04:56:14.659Z,88.36
2018-12-26T04:58:42.163Z,88.22
2018-12-26T05:01:10.044Z,87.90
2018-12-26T05:03:37.968Z,88.15
2018-12-26T05:06:05.846Z,88.21
2018-12-26T05:08:33.639Z,87.98
2018-12-26T05:11:00.882Z,88.07
2018-12-26T05:13:28.497Z,88.24
2018-12-26T05:15:56.132Z,88.22
2018-12-26T05:18:23.753Z,88.37
2018-12-26T05:20:51.540Z,88.15
2018-12-26T05:23:19.549Z,88.25
2018-12-26T05:25:46.835Z,87.36
2018-12-26T05:28:14.112Z,87.48
2018-12-26T05:30:41.241Z,86.96
2018-12-26T05:33:08.642Z,87.51
2018-12-26T05:35:36.148Z,86.84
2018-12-26T05:38:03.509Z,86.68
2018-12-26T05:40:31.025Z,86.68
2018-12-26T05:42:59.364Z,86.51
2018-12-26T05:45:26.882Z,86.76
2018-12-26T05:47:54.169Z,87.10
2018-12-26T05:50:21.331Z,87.62
2018-12-26T05:52:49.176Z,87.37
2018-12-26T05:55:16.339Z,86.82
2018-12-26T05:57:43.599Z,86.84
2018-12-26T06:00:10.857Z,86.79
2018-12-26T06:02:38.520Z,86.67
2018-12-26T06:05:05.876Z,86.69
2018-12-26T06:07:33.033Z,86.96
2018-12-26T06:10:00.845Z,87.57
2018-12-26T06:12:28.428Z,87.36
2018-12-26T06:14:55.960Z,87.15
2018-12-26T06:17:23.104Z,87.02
2018-12-26T06:19:51.497Z,87.23
2018-12-26T06:22:18.986Z,87.00
2018-12-26T06:24:46.438Z,87.47
2018-12-26T06:27:14.501Z,87.19
2018-12-26T06:29:42.075Z,86.85
2018-12-26T06:32:09.374Z,86.43
2018-12-26T06:34:36.509Z,86.60
2018-12-26T06:37:03.768Z,86.43
2018-12-26T06:39:31.213Z,86.03
2018-12-26T06:41:58.681Z,86.35
2018-12-26T06:44:26.133Z,85.89
2018-12-26T06:46:53.366Z,85.85
2018-12-26T06:49:20.803Z,86.30
2018-12-26T06:51:48.425Z,86.39
2018-12-26T06:54:15.822Z,86.84
2018-12-26T06:56:43.406Z,86.58
2018-12-26T06:59:10.678Z,86.79
2018-12-26T07:01:37.959Z,86.53
2018-12-26T07:04:05.340Z,86.93
2018-12-26T07:06:33.563Z,86.75
2018-12-26T07:09:01.129Z,86.81
2018-12-26T07:11:28.956Z,86.98
2018-12-26T07:13:56.362Z,87.04
2018-12-26T07:16:23.792Z,86.66
2018-12-26T07:18:51.688Z,86.94
2018-12-26T07:21:19.493Z,87.24
2018-12-26T07:23:46.982Z,87.27
2018-12-26T07:26:14.412Z,87.05
2018-12-26T07:28:41.715Z,86.94
2018-12-26T07:31:09.013Z,87.09
2018-12-26T07:33:36.551Z,86.98
2018-12-26T07:36:06.028Z,86.79
2018-12-26T07:38:33.550Z,87.04
2018-12-26T07:41:00.757Z,86.92
2018-12-26T07:43:28.196Z,86.87
2018-12-26T07:45:56.109Z,86.82
2018-12-26T07:48:23.573Z,86.90
2018-12-26T07:50:51.373Z,86.79
2018-12-26T07:53:19.384Z,87.16
2018-12-26T07:55:47.121Z,87.08
2018-12-26T07:58:17.713Z,86.80
2018-12-26T08:00:44.052Z,86.76
2018-12-26T08:03:11.572Z,86.64
2018-12-26T08:05:39.503Z,86.84
2018-12-26T08:08:06.952Z,86.90
2018-12-26T08:10:34.431Z,86.92
2018-12-26T08:13:01.686Z,87.15
2018-12-26T08:15:28.847Z,87.13
2018-12-26T08:17:56.128Z,87.18
2018-12-26T08:20:23.279Z,87.00
2018-12-26T08:22:50.702Z,86.74
2018-12-26T08:25:18.361Z,86.93
2018-12-26T08:27:45.984Z,86.90
2018-12-26T08:30:13.675Z,86.63
2018-12-26T08:32:40.782Z,86.56
2018-12-26T08:35:08.521Z,86.29
2018-12-26T08:37:36.390Z,86.60
2018-12-26T08:40:04.440Z,86.99
2018-12-26T08:42:31.947Z,87.20
2018-12-26T08:44:59.668Z,87.05
2018-12-26T08:47:26.952Z,87.14
2018-12-26T08:49:54.720Z,87.26
2018-12-26T08:52:21.843Z,87.01
2018-12-26T08:54:49.214Z,86.98
2018-12-26T08:57:16.832Z,87.13
2018-12-26T08:59:48.462Z,87.23
2018-12-26T09:02:15.718Z,87.21
2018-12-26T09:04:43.065Z,87.15
2018-12-26T09:07:10.589Z,87.13
2018-12-26T09:09:38.255Z,87.42
2018-12-26T09:12:05.476Z,87.23
2018-12-26T09:14:32.946Z,86.99
2018-12-26T09:17:00.118Z,87.21
2018-12-26T09:19:27.989Z,87.15
2018-12-26T09:21:55.757Z,87.25
2018-12-26T09:24:23.104Z,87.15
2018-12-26T09:26:50.351Z,86.75
2018-12-26T09:29:17.966Z,86.93
2018-12-26T09:31:45.245Z,87.02
2018-12-26T09:34:13.328Z,86.94
2018-12-26T09:36:40.572Z,87.01
2018-12-26T09:39:08.070Z,87.05
2018-12-26T09:41:42.392Z,87.00
2018-12-26T09:44:10.330Z,87.07
2018-12-26T09:46:37.602Z,87.20
2018-12-26T09:49:05.406Z,87.23
2018-12-26T09:51:32.766Z,87.13
2018-12-26T09:54:00.311Z,87.03
2018-12-26T09:56:27.917Z,86.65
2018-12-26T09:58:55.372Z,86.31
2018-12-26T10:01:22.518Z,86.26
2018-12-26T10:03:50.193Z,86.05
2018-12-26T10:06:17.640Z,86.35
2018-12-26T10:08:45.784Z,86.19
2018-12-26T10:11:13.489Z,86.33
2018-12-26T10:13:41.055Z,86.41
2018-12-26T10:16:08.418Z,86.53
2018-12-26T10:18:35.638Z,86.65
2018-12-26T10:21:03.261Z,86.52
2018-12-26T10:23:35.105Z,86.63
2018-12-26T10:26:03.169Z,86.62
2018-12-26T10:28:30.282Z,86.28
2018-12-26T10:30:58.344Z,86.26
2018-12-26T10:33:26.538Z,86.76
2018-12-26T10:35:53.657Z,86.31
2018-12-26T10:38:20.831Z,86.37
2018-12-26T10:40:48.316Z,86.27
2018-12-26T10:43:15.796Z,85.95
2018-12-26T10:45:43.360Z,85.99
2018-12-26T10:48:11.511Z,86.08
2018-12-26T10:50:39.035Z,86.37
2018-12-26T10:53:07.268Z,85.95
2018-12-26T10:55:34.988Z,85.83
2018-12-26T10:58:03.116Z,85.76
2018-12-26T11:00:31.007Z,85.87
2018-12-26T11:02:58.987Z,85.82
2018-12-26T11:05:30.929Z,85.88
2018-12-26T11:07:58.344Z,85.96
2018-12-26T11:10:25.912Z,85.66
2018-12-26T11:12:53.123Z,85.72
2018-12-26T11:15:20.397Z,85.48
2018-12-26T11:17:49.089Z,85.59
2018-12-26T11:20:16.544Z,85.44
2018-12-26T11:22:44.729Z,85.55
2018-12-26T11:25:12.226Z,85.18
2018-12-26T11:27:39.641Z,85.29
2018-12-26T11:30:08.517Z,85.20
2018-12-26T11:32:36.014Z,85.60
2018-12-26T11:35:03.774Z,85.06
2018-12-26T11:37:31.401Z,85.01
2018-12-26T11:39:59.531Z,84.86
2018-12-26T11:42:27.171Z,84.84
2018-12-26T11:44:54.337Z,84.66
2018-12-26T11:47:21.534Z,84.33
2018-12-26T11:49:49.440Z,84.70
2018-12-26T11:52:16.581Z,84.61
2018-12-26T11:54:44.128Z,84.72
2018-12-26T11:57:11.655Z,84.55
2018-12-26T11:59:39.271Z,84.34
2018-12-26T12:02:06.588Z,84.27
2018-12-26T12:04:34.365Z,84.33
2018-12-26T12:07:01.737Z,84.21
2018-12-26T12:09:29.856Z,84.23
2018-12-26T12:11:57.667Z,84.15
2018-12-26T12:14:25.609Z,83.94
2018-12-26T12:16:53.030Z,83.98
2018-12-26T12:19:21.244Z,83.74
2018-12-26T12:21:49.566Z,84.00
2018-12-26T12:24:17.149Z,83.66
2018-12-26T12:26:44.631Z,83.74
2018-12-26T12:29:12.995Z,83.73
2018-12-26T12:31:40.440Z,83.63
2018-12-26T12:34:08.213Z,83.81
2018-12-26T12:36:36.291Z,83.74
2018-12-26T12:39:06.601Z,83.59
2018-12-26T12:41:33.947Z,83.70
2018-12-26T12:44:01.905Z,83.74
2018-12-26T12:46:29.616Z,83.79
2018-12-26T12:48:57.796Z,83.57
2018-12-26T12:51:28.452Z,83.43
2018-12-26T12:53:55.765Z,83.18
2018-12-26T12:56:23.456Z,83.35
2018-12-26T12:58:50.884Z,83.18
2018-12-26T13:01:18.430Z,83.23
2018-12-26T13:03:46.884Z,83.32
2018-12-26T13:06:14.450Z,83.58
2018-12-26T13:08:41.811Z,83.32
2018-12-26T13:11:09.360Z,83.10
2018-12-26T13:13:37.346Z,83.46
2018-12-26T13:16:05.625Z,83.33
2018-12-26T13:18:33.128Z,83.55
2018-12-26T13:21:00.634Z,83.54
2018-12-26T13:23:27.896Z,83.12
2018-12-26T13:25:55.451Z,82.88
2018-12-26T13:28:23.196Z,83.39
2018-12-26T13:30:50.328Z,83.58
2018-12-26T13:33:22.198Z,83.45
2018-12-26T13:35:50.286Z,82.98
2018-12-26T13:38:18.368Z,82.79
2018-12-26T13:40:45.750Z,82.93
2018-12-26T13:43:13.366Z,82.50
2018-12-26T13:45:41.014Z,82.88
2018-12-26T13:48:08.481Z,83.29
2018-12-26T13:50:36.145Z,82.86
2018-12-26T13:53:04.018Z,82.78
2018-12-26T13:55:31.685Z,82.85
2018-12-26T13:57:58.805Z,83.11
2018-12-26T14:00:26.202Z,83.44
2018-12-26T14:02:54.025Z,82.82
2018-12-26T14:05:21.836Z,82.72
2018-12-26T14:07:49.846Z,82.80
2018-12-26T14:10:17.338Z,82.67
2018-12-26T14:12:45.209Z,82.55
2018-12-26T14:15:12.629Z,82.14
2018-12-26T14:17:40.139Z,82.33
2018-12-26T14:20:07.886Z,82.38
2018-12-26T14:22:35.881Z,82.19
2018-12-26T14:25:03.707Z,82.54
2018-12-26T14:27:31.612Z,82.66
2018-12-26T14:29:59.301Z,82.28
2018-12-26T14:32:26.439Z,82.99
2018-12-26T14:34:53.619Z,83.17
2018-12-26T14:37:21.041Z,82.54
2018-12-26T14:39:48.931Z,82.43
2018-12-26T14:42:16.754Z,82.17
2018-12-26T14:44:44.152Z,82.56
2018-12-26T14:47:11.898Z,82.11
2018-12-26T14:49:39.514Z,82.27
2018-12-26T14:52:07.009Z,82.02
2018-12-26T14:54:34.543Z,82.26
2018-12-26T14:57:01.675Z,82.11
2018-12-26T14:59:29.232Z,82.29
2018-12-26T15:01:57.465Z,82.45
2018-12-26T15:04:25.173Z,82.72
2018-12-26T15:06:52.817Z,82.53
2018-12-26T15:09:20.720Z,82.57
2018-12-26T15:11:48.140Z,82.57
2018-12-26T15:14:15.937Z,82.51
2018-12-26T15:16:43.492Z,82.37
2018-12-26T15:19:18.636Z,82.57
2018-12-26T15:21:46.649Z,82.50
2018-12-26T15:24:13.816Z,82.59
2018-12-26T15:26:41.879Z,82.60
2018-12-26T15:29:09.255Z,82.75
2018-12-26T15:31:36.768Z,82.74
2018-12-26T15:34:04.653Z,82.83
2018-12-26T15:36:32.236Z,82.83
2018-12-26T15:38:59.418Z,82.67
2018-12-26T15:41:27.104Z,82.94
2018-12-26T15:43:54.832Z,83.03
2018-12-26T15:46:22.300Z,83.23
2018-12-26T15:48:50.543Z,82.99
2018-12-26T15:51:18.083Z,83.12
2018-12-26T15:53:45.579Z,83.08
2018-12-26T15:56:13.240Z,82.94
2018-12-26T15:58:40.422Z,83.12
2018-12-26T16:01:07.528Z,83.19
2018-12-26T16:03:34.836Z,83.09
2018-12-26T16:06:02.196Z,83.46
2018-12-26T16:08:29.703Z,83.15
2018-12-26T16:10:56.953Z,83.13
2018-12-26T16:13:24.355Z,83.21
2018-12-26T16:15:52.848Z,83.10
2018-12-26T16:18:21.174Z,83.26
2018-12-26T16:20:48.425Z,83.32
2018-12-26T16:23:16.014Z,83.15
2018-12-26T16:25:43.514Z,83.24
2018-12-26T16:28:11.326Z,83.36
2018-12-26T16:30:46.185Z,83.28
2018-12-26T16:33:08.025Z,83.32
2018-12-26T16:35:35.582Z,83.12
2018-12-26T16:38:02.958Z,83.12
2018-12-26T16:40:30.849Z,83.23
2018-12-26T16:42:58.743Z,83.31
2018-12-26T16:45:26.042Z,83.58
2018-12-26T16:47:53.985Z,83.55
2018-12-26T16:50:26.958Z,83.65
2018-12-26T16:52:51.885Z,83.39
2018-12-26T16:55:19.474Z,83.29
2018-12-26T16:57:47.238Z,83.41
2018-12-26T17:00:15.083Z,83.47
2018-12-26T17:02:42.393Z,83.53
2018-12-26T17:05:10.304Z,83.54
2018-12-26T17:07:37.444Z,83.53
2018-12-26T17:10:06.370Z,83.34
2018-12-26T17:12:33.726Z,83.44
2018-12-26T17:15:00.996Z,83.42
2018-12-26T17:17:29.242Z,83.37
2018-12-26T17:19:56.894Z,83.57
2018-12-26T17:22:24.413Z,83.45
2018-12-26T17:24:51.690Z,83.54
2018-12-26T17:27:19.145Z,83.37
2018-12-26T17:29:46.317Z,83.74
2018-12-26T17:32:13.877Z,83.75
2018-12-26T17:34:41.852Z,83.90
2018-12-26T17:37:09.460Z,83.72
2018-12-26T17:39:37.066Z,83.70
2018-12-26T17:42:04.183Z,83.68
2018-12-26T17:44:31.703Z,83.80
2018-12-26T17:46:59.253Z,83.72
2018-12-26T17:49:26.673Z,83.79
2018-12-26T17:51:54.953Z,83.69
2018-12-26T17:54:56.583Z,83.65
2018-12-26T17:57:33.243Z,83.55
2018-12-26T18:00:32.336Z,83.71
2018-12-26T18:02:59.927Z,83.92
2018-12-26T18:05:27.384Z,83.95
2018-12-26T18:07:54.700Z,83.95
2018-12-26T18:10:22.991Z,83.88
2018-12-26T18:12:50.625Z,83.74
2018-12-26T18:15:17.913Z,83.77
2018-12-26T18:17:45.244Z,83.68
2018-12-26T18:20:13.197Z,83.86
2018-12-26T18:22:40.853Z,83.75
2018-12-26T18:25:08.578Z,83.46
2018-12-26T18:27:36.143Z,83.50
2018-12-26T18:30:08.129Z,83.44
2018-12-26T18:32:35.507Z,83.45
2018-12-26T18:35:03.148Z,83.39
2018-12-26T18:37:30.957Z,83.47
2018-12-26T18:39:58.107Z,83.56
2018-12-26T18:42:25.618Z,83.60
2018-12-26T18:44:53.093Z,83.40
2018-12-26T18:47:20.758Z,83.14
2018-12-26T18:49:47.963Z,83.41
2018-12-26T18:52:16.037Z,83.51
2018-12-26T18:54:43.280Z,83.33
2018-12-26T18:57:10.809Z,83.27
2018-12-26T18:59:37.929Z,83.69
2018-12-26T19:02:05.685Z,83.94
2018-12-26T19:04:33.261Z,83.82
2018-12-26T19:07:00.969Z,84.18
2018-12-26T19:09:28.685Z,84.04
2018-12-26T19:11:56.419Z,84.20
2018-12-26T19:14:23.896Z,84.13
2018-12-26T19:16:51.248Z,83.90
2018-12-26T19:19:18.874Z,83.74
2018-12-26T19:21:46.653Z,83.95
2018-12-26T19:24:14.541Z,83.96
2018-12-26T19:26:42.113Z,84.04
2018-12-26T19:29:09.733Z,84.13
2018-12-26T19:31:39.656Z,84.15
2018-12-26T19:34:06.201Z,84.10
2018-12-26T19:36:33.322Z,84.00
2018-12-26T19:39:00.811Z,83.79
2018-12-26T19:41:28.427Z,83.74
2018-12-26T19:43:56.692Z,84.07
2018-12-26T19:46:23.861Z,83.86
2018-12-26T19:48:51.629Z,83.98
2018-12-26T19:51:19.066Z,84.12
2018-12-26T19:53:46.602Z,84.09
2018-12-26T19:56:14.420Z,83.98
2018-12-26T19:58:41.700Z,84.26
2018-12-26T20:01:09.089Z,83.86
2018-12-26T20:03:36.509Z,83.98
2018-12-26T20:06:04.356Z,84.01
2018-12-26T20:08:31.589Z,84.08
2018-12-26T20:10:58.989Z,84.01
2018-12-26T20:13:29.647Z,84.03
2018-12-26T20:15:57.235Z,83.97
2018-12-26T20:19:54.222Z,84.02
2018-12-26T20:22:21.857Z,84.06
2018-12-26T20:24:49.591Z,83.84
2018-12-26T20:27:17.082Z,84.00
2018-12-26T20:29:44.577Z,83.88
2018-12-26T20:32:12.366Z,83.68
2018-12-26T20:34:42.452Z,83.83
2018-12-26T20:37:10.286Z,83.84
2018-12-26T20:39:37.778Z,84.06
2018-12-26T20:42:05.475Z,83.93
2018-12-26T20:44:33.458Z,83.71
2018-12-26T20:47:01.264Z,83.46
2018-12-26T20:49:28.668Z,83.66
2018-12-26T20:51:56.123Z,83.71
2018-12-26T20:54:24.282Z,83.80
2018-12-26T20:56:51.534Z,83.61
2018-12-26T20:59:19.189Z,83.59
2018-12-26T21:01:46.467Z,83.56
2018-12-26T21:04:14.249Z,83.53
2018-12-26T21:06:41.506Z,83.56
2018-12-26T21:09:08.724Z,83.61
2018-12-26T21:11:36.227Z,83.71
2018-12-26T21:14:03.803Z,83.58
2018-12-26T21:16:32.911Z,83.61
2018-12-26T21:19:00.428Z,83.70
2018-12-26T21:21:28.652Z,83.54
2018-12-26T21:23:55.793Z,83.51
2018-12-26T21:26:23.427Z,83.78
2018-12-26T21:28:51.614Z,83.84
2018-12-26T21:31:18.705Z,83.75
2018-12-26T21:33:46.226Z,83.84
2018-12-26T21:36:14.353Z,83.84
2018-12-26T21:38:42.030Z,83.84
2018-12-26T21:41:10.004Z,83.84
2018-12-26T21:43:37.248Z,83.66
2018-12-26T21:46:04.815Z,83.45
2018-12-26T21:48:32.632Z,83.48
2018-12-26T21:51:00.097Z,83.52
2018-12-26T21:53:27.577Z,83.51
2018-12-26T21:55:55.145Z,83.67
2018-12-26T21:58:25.947Z,83.84
2018-12-26T22:00:53.434Z,83.74
2018-12-26T22:03:20.682Z,83.79
2018-12-26T22:05:47.794Z,83.82
2018-12-26T22:08:14.913Z,83.89
2018-12-26T22:10:42.991Z,83.87
2018-12-26T22:13:10.156Z,83.93
2018-12-26T22:15:37.810Z,83.99
2018-12-26T22:18:05.593Z,83.96
2018-12-26T22:20:32.810Z,83.99
2018-12-26T22:23:00.753Z,83.98
2018-12-26T22:25:28.640Z,84.36
2018-12-26T22:27:56.774Z,84.20
2018-12-26T22:30:24.303Z,84.17
2018-12-26T22:32:51.841Z,84.27
2018-12-26T22:35:19.419Z,84.37
2018-12-26T22:37:46.576Z,84.47
2018-12-26T22:40:13.686Z,84.24
2018-12-26T22:42:40.772Z,84.51
2018-12-26T22:45:08.251Z,84.20
2018-12-26T22:47:35.770Z,84.10
2018-12-26T22:50:04.010Z,83.96
2018-12-26T22:52:32.458Z,83.95
2018-12-26T22:55:00.394Z,84.06
2018-12-26T22:57:27.688Z,83.93
2018-12-26T22:59:56.285Z,84.24
2018-12-26T23:02:23.664Z,84.02
2018-12-26T23:04:51.145Z,83.88
2018-12-26T23:07:18.631Z,83.98
2018-12-26T23:09:46.437Z,83.80
2018-12-26T23:12:14.012Z,83.87
2018-12-26T23:14:41.272Z,84.19
2018-12-26T23:17:08.564Z,84.39
2018-12-26T23:19:35.810Z,84.10
2018-12-26T23:22:03.360Z,83.89
2018-12-26T23:24:31.338Z,83.96
2018-12-26T23:26:58.967Z,83.82
2018-12-26T23:29:26.721Z,83.97
2018-12-26T23:31:54.950Z,84.04
2018-12-26T23:34:22.525Z,83.93
2018-12-26T23:36:49.929Z,83.98
2018-12-26T23:39:18.110Z,83.80
2018-12-26T23:41:45.673Z,83.88
2018-12-26T23:44:13.240Z,83.96
2018-12-26T23:46:40.594Z,83.74
2018-12-26T23:49:08.104Z,83.91
2018-12-26T23:51:35.833Z,84.01
2018-12-26T23:54:03.320Z,83.87
2018-12-26T23:56:31.210Z,84.07
2018-12-26T23:58:58.817Z,83.99
